createdAt,value
2022-08-03T00:01:01.913Z,99
2022-08-03T00:11:01.840Z,99
2022-08-03T00:21:01.748Z,99
2022-08-03T00:31:01.692Z,95
2022-08-03T00:41:01.626Z,86
2022-08-03T00:51:01.557Z,55
2022-08-03T01:01:01.526Z,57
2022-08-03T01:11:01.387Z,57
2022-08-03T01:21:01.333Z,46
2022-08-03T01:31:01.263Z,45
2022-08-03T01:41:01.178Z,44
2022-08-03T01:51:01.276Z,46
2022-08-03T02:01:01.161Z,51
2022-08-03T02:11:00.959Z,56
2022-08-03T02:21:00.930Z,51
2022-08-03T02:31:00.866Z,48
2022-08-03T02:41:00.758Z,49
2022-08-03T02:51:00.664Z,44
2022-08-03T03:01:00.655Z,43
2022-08-03T03:11:00.507Z,51
2022-08-03T03:21:00.432Z,57
2022-08-03T03:31:00.365Z,57
2022-08-03T03:41:00.313Z,63
2022-08-03T03:51:00.239Z,67
2022-08-03T04:01:00.265Z,69
2022-08-03T04:11:00.195Z,68
2022-08-03T04:21:00.027Z,69
2022-08-03T04:30:59.949Z,68
2022-08-03T04:40:59.882Z,68
2022-08-03T04:50:59.818Z,72
2022-08-03T05:00:59.740Z,73
2022-08-03T05:10:59.700Z,77
2022-08-03T05:20:59.595Z,78
2022-08-03T05:30:59.520Z,88
2022-08-03T05:41:21.125Z,93
2022-08-03T05:50:59.381Z,99
2022-08-03T06:00:59.302Z,99
2022-08-03T06:10:59.234Z,99
2022-08-03T06:21:00.199Z,99
2022-08-03T06:30:59.187Z,99
2022-08-03T06:40:59.020Z,99
2022-08-03T06:50:58.941Z,99
2022-08-03T07:00:58.955Z,99
2022-08-03T07:10:58.800Z,99
2022-08-03T07:20:58.733Z,99
2022-08-03T07:30:58.656Z,99
2022-08-03T07:40:58.580Z,99
2022-08-03T07:50:58.511Z,99
2022-08-03T08:00:58.513Z,99
2022-08-03T08:10:58.844Z,99
2022-08-03T08:20:59.169Z,99
2022-08-03T08:30:58.227Z,99
2022-08-03T08:40:58.149Z,99
2022-08-03T08:50:58.119Z,99
2022-08-03T09:00:59.137Z,99
2022-08-03T09:10:57.959Z,99
2022-08-03T09:20:57.883Z,99
2022-08-03T09:30:57.791Z,99
2022-08-03T09:41:00.493Z,99
2022-08-03T09:51:13.498Z,99
2022-08-03T10:00:57.701Z,99
2022-08-03T10:10:57.525Z,99
2022-08-03T10:20:57.443Z,99
2022-08-03T10:30:57.368Z,98
2022-08-03T10:40:59.202Z,96
2022-08-03T10:50:57.229Z,99
2022-08-03T11:00:57.237Z,99
2022-08-03T11:10:57.190Z,99
2022-08-03T11:20:57.067Z,93
2022-08-03T11:30:56.950Z,98
2022-08-03T11:40:56.888Z,87
2022-08-03T11:50:56.813Z,83
2022-08-03T12:00:56.814Z,79
2022-08-03T12:10:56.650Z,64
2022-08-03T12:20:56.607Z,59
2022-08-03T12:30:56.661Z,60
2022-08-03T12:40:56.455Z,60
2022-08-03T12:50:56.371Z,60
2022-08-03T13:00:56.649Z,32
2022-08-03T13:10:56.349Z,25
2022-08-03T13:20:56.200Z,37
2022-08-03T13:30:56.198Z,42
2022-08-03T13:40:56.090Z,23
2022-08-03T13:50:55.967Z,39
2022-08-03T14:00:56.005Z,55
2022-08-03T14:10:55.853Z,65
2022-08-03T14:20:56.882Z,50
2022-08-03T14:30:55.901Z,62
2022-08-03T14:40:55.604Z,61
2022-08-03T14:50:55.684Z,86
2022-08-03T15:00:55.566Z,84
2022-08-03T15:10:55.532Z,87
2022-08-03T15:20:55.353Z,97
2022-08-03T15:30:55.243Z,99
2022-08-03T15:40:55.291Z,99
2022-08-03T15:50:55.103Z,99
2022-08-03T16:00:55.077Z,99
2022-08-03T16:10:54.959Z,99
2022-08-03T16:20:54.933Z,99
2022-08-03T16:30:54.901Z,99
2022-08-03T16:40:54.749Z,96
2022-08-03T16:50:54.683Z,99
2022-08-03T17:00:54.638Z,99
2022-08-03T17:10:54.530Z,99
2022-08-03T17:20:54.616Z,98
2022-08-03T17:30:54.575Z,99
2022-08-03T17:40:54.434Z,92
2022-08-03T17:50:54.340Z,92
2022-08-03T18:00:54.275Z,97
2022-08-03T18:10:54.225Z,93
2022-08-03T18:20:54.137Z,91
2022-08-03T18:30:55.224Z,94
2022-08-03T18:40:53.990Z,93
2022-08-03T18:50:53.994Z,94
2022-08-03T19:00:54.774Z,95
2022-08-03T19:11:00.593Z,99
2022-08-03T19:20:54.710Z,99
2022-08-03T19:30:53.978Z,99
2022-08-03T19:40:53.717Z,99
2022-08-03T19:50:53.511Z,99
2022-08-03T20:00:53.433Z,96
2022-08-03T20:10:53.444Z,89
2022-08-03T20:20:53.326Z,88
2022-08-03T20:30:53.239Z,83
2022-08-03T20:40:53.146Z,76
2022-08-03T20:50:53.149Z,76
2022-08-03T21:00:53.006Z,78
2022-08-03T21:10:52.932Z,76
2022-08-03T21:20:52.919Z,74
2022-08-03T21:30:52.703Z,76
2022-08-03T21:40:52.768Z,68
2022-08-03T21:50:52.556Z,70
2022-08-03T22:00:52.489Z,62
2022-08-03T22:10:52.427Z,60
2022-08-03T22:20:52.340Z,57
2022-08-03T22:30:52.260Z,56
2022-08-03T22:40:52.207Z,44
2022-08-03T22:50:52.117Z,38
2022-08-03T23:00:53.878Z,34
2022-08-03T23:10:52.107Z,30
2022-08-03T23:20:51.903Z,32
2022-08-03T23:30:51.912Z,26
2022-08-03T23:40:51.777Z,28
2022-08-03T23:50:51.689Z,38
